createdAt,value
2022-08-25T00:01:55.151Z,17.49
2022-08-25T00:04:23.101Z,17.40
2022-08-25T00:06:50.450Z,17.36
2022-08-25T00:09:18.811Z,17.41
2022-08-25T00:11:49.394Z,17.36
2022-08-25T00:14:21.269Z,17.33
2022-08-25T00:16:48.520Z,17.34
2022-08-25T00:19:17.507Z,17.36
2022-08-25T00:21:45.471Z,17.39
2022-08-25T00:24:13.108Z,17.28
2022-08-25T00:26:43.913Z,17.25
2022-08-25T00:29:11.251Z,17.22
2022-08-25T00:31:39.271Z,17.25
2022-08-25T00:34:07.903Z,17.27
2022-08-25T00:36:34.764Z,17.28
2022-08-25T00:39:01.872Z,17.18
2022-08-25T00:41:29.153Z,17.16
2022-08-25T00:43:57.445Z,17.10
2022-08-25T00:46:29.580Z,17.15
2022-08-25T00:49:02.252Z,17.19
2022-08-25T00:51:35.220Z,17.14
2022-08-25T00:54:03.039Z,17.08
2022-08-25T00:56:31.837Z,17.08
2022-08-25T00:58:59.723Z,17.04
2022-08-25T01:01:26.902Z,17.02
2022-08-25T01:03:54.322Z,16.95
2022-08-25T01:06:21.478Z,16.89
2022-08-25T01:08:48.520Z,16.88
2022-08-25T01:11:15.731Z,16.87
2022-08-25T01:13:47.599Z,16.87
2022-08-25T01:16:15.613Z,16.91
2022-08-25T01:18:53.362Z,16.95
2022-08-25T01:21:25.388Z,16.91
2022-08-25T01:23:53.046Z,16.94
2022-08-25T01:26:30.315Z,16.93
2022-08-25T01:29:18.597Z,16.87
2022-08-25T01:32:04.802Z,16.84
2022-08-25T01:34:38.768Z,16.87
2022-08-25T01:37:06.008Z,16.86
2022-08-25T01:39:34.123Z,16.83
2022-08-25T01:42:05.524Z,16.84
2022-08-25T01:45:06.983Z,16.77
2022-08-25T01:48:19.632Z,16.74
2022-08-25T01:51:05.054Z,16.72
2022-08-25T01:53:47.506Z,16.73
2022-08-25T01:56:15.561Z,16.74
2022-08-25T01:59:24.065Z,16.75
2022-08-25T02:01:57.436Z,16.68
2022-08-25T02:04:29.587Z,16.68
2022-08-25T02:06:56.473Z,16.72
2022-08-25T02:09:23.291Z,16.68
2022-08-25T02:11:50.985Z,16.64
2022-08-25T02:14:18.521Z,16.66
2022-08-25T02:16:49.867Z,16.66
2022-08-25T02:19:17.993Z,16.59
2022-08-25T02:21:57.227Z,16.59
2022-08-25T02:24:27.344Z,16.59
2022-08-25T02:26:54.346Z,16.62
2022-08-25T02:29:21.418Z,16.63
2022-08-25T02:31:51.617Z,16.63
2022-08-25T02:34:18.562Z,16.58
2022-08-25T02:36:45.353Z,16.63
2022-08-25T02:39:12.774Z,16.56
2022-08-25T02:41:40.286Z,16.56
2022-08-25T02:44:07.574Z,16.63
2022-08-25T02:46:35.082Z,16.60
2022-08-25T02:49:01.934Z,16.59
2022-08-25T02:51:30.413Z,16.56
2022-08-25T02:53:59.076Z,16.54
2022-08-25T02:56:25.953Z,16.52
2022-08-25T02:58:52.872Z,16.49
2022-08-25T03:01:20.397Z,16.52
2022-08-25T03:03:49.505Z,16.53
2022-08-25T03:06:18.277Z,16.48
2022-08-25T03:08:45.759Z,16.45
2022-08-25T03:11:12.874Z,16.47
2022-08-25T03:13:40.095Z,16.45
2022-08-25T03:16:11.374Z,16.43
2022-08-25T03:18:40.876Z,16.52
2022-08-25T03:21:07.981Z,16.48
2022-08-25T03:23:35.150Z,16.44
2022-08-25T03:26:20.291Z,16.44
2022-08-25T03:28:47.322Z,16.40
2022-08-25T03:31:14.112Z,16.39
2022-08-25T03:33:41.109Z,16.35
2022-08-25T03:36:09.020Z,16.35
2022-08-25T03:38:38.403Z,16.45
2022-08-25T03:41:25.643Z,16.41
2022-08-25T03:43:55.569Z,16.35
2022-08-25T03:46:23.945Z,16.34
2022-08-25T03:48:52.044Z,16.40
2022-08-25T03:51:30.026Z,16.41
2022-08-25T03:53:57.088Z,16.46
2022-08-25T03:56:24.183Z,16.46
2022-08-25T03:58:51.439Z,16.44
2022-08-25T04:01:18.444Z,16.45
2022-08-25T04:03:46.082Z,16.41
2022-08-25T04:06:12.956Z,16.49
2022-08-25T04:08:39.789Z,16.53
2022-08-25T04:11:10.829Z,16.57
2022-08-25T04:13:37.765Z,16.58
2022-08-25T04:16:10.103Z,16.66
2022-08-25T04:18:37.231Z,16.65
2022-08-25T04:21:05.357Z,16.70
2022-08-25T04:23:32.769Z,16.72
2022-08-25T04:25:59.889Z,16.73
2022-08-25T04:28:26.732Z,16.73
2022-08-25T04:30:53.654Z,16.76
2022-08-25T04:33:20.650Z,16.79
2022-08-25T04:35:48.793Z,16.76
2022-08-25T04:38:15.604Z,16.73
2022-08-25T04:40:42.671Z,16.74
2022-08-25T04:43:09.471Z,16.70
2022-08-25T04:45:37.196Z,16.74
2022-08-25T04:48:04.563Z,16.82
2022-08-25T04:50:31.527Z,16.84
2022-08-25T04:52:58.402Z,16.87
2022-08-25T04:55:25.529Z,16.94
2022-08-25T04:57:52.297Z,16.89
2022-08-25T05:00:19.365Z,16.97
2022-08-25T05:02:46.491Z,17.00
2022-08-25T05:05:13.375Z,17.07
2022-08-25T05:07:41.309Z,17.11
2022-08-25T05:10:09.603Z,17.00
2022-08-25T05:12:36.523Z,17.01
2022-08-25T05:15:24.432Z,17.04
2022-08-25T05:17:55.321Z,17.02
2022-08-25T05:20:23.584Z,16.96
2022-08-25T05:22:50.515Z,17.06
2022-08-25T05:25:18.133Z,17.04
2022-08-25T05:27:45.243Z,17.15
2022-08-25T05:30:12.804Z,17.30
2022-08-25T05:32:40.035Z,17.35
2022-08-25T05:35:07.680Z,17.46
2022-08-25T05:37:34.793Z,17.42
2022-08-25T05:40:02.035Z,17.46
2022-08-25T05:42:29.211Z,17.45
2022-08-25T05:44:56.407Z,17.42
2022-08-25T05:47:24.306Z,17.54
2022-08-25T05:49:51.213Z,17.54
2022-08-25T05:52:20.313Z,17.50
2022-08-25T05:54:47.882Z,17.54
2022-08-25T05:57:14.796Z,17.68
2022-08-25T05:59:41.699Z,17.85
2022-08-25T06:02:27.307Z,17.79
2022-08-25T06:04:54.191Z,17.70
2022-08-25T06:07:21.264Z,17.57
2022-08-25T06:09:50.103Z,17.67
2022-08-25T06:12:17.649Z,17.68
2022-08-25T06:14:44.963Z,17.78
2022-08-25T06:17:11.995Z,17.63
2022-08-25T06:19:41.260Z,17.55
2022-08-25T06:22:08.745Z,17.57
2022-08-25T06:24:36.116Z,17.59
2022-08-25T06:27:03.193Z,17.64
2022-08-25T06:29:30.365Z,17.81
2022-08-25T06:31:57.293Z,17.88
2022-08-25T06:34:24.465Z,18.11
2022-08-25T06:36:51.778Z,18.16
2022-08-25T06:39:18.822Z,18.18
2022-08-25T06:41:45.731Z,18.26
2022-08-25T06:44:12.930Z,18.24
2022-08-25T06:46:39.922Z,18.37
2022-08-25T06:49:07.067Z,18.55
2022-08-25T06:51:38.071Z,18.54
2022-08-25T06:54:07.110Z,18.05
2022-08-25T06:56:34.438Z,18.52
2022-08-25T06:59:05.279Z,18.85
2022-08-25T07:01:32.489Z,19.13
2022-08-25T07:04:00.757Z,19.27
2022-08-25T07:06:29.122Z,19.21
2022-08-25T07:08:56.008Z,19.40
2022-08-25T07:11:23.074Z,19.63
2022-08-25T07:13:50.848Z,19.68
2022-08-25T07:16:18.899Z,19.63
2022-08-25T07:18:47.622Z,19.81
2022-08-25T07:21:15.177Z,19.70
2022-08-25T07:23:42.259Z,19.88
2022-08-25T07:29:02.353Z,20.08
2022-08-25T07:31:30.263Z,19.78
2022-08-25T07:34:16.379Z,20.19
2022-08-25T07:36:43.897Z,20.31
2022-08-25T07:39:10.776Z,20.17
2022-08-25T07:41:38.824Z,20.47
2022-08-25T07:44:07.099Z,20.59
2022-08-25T07:46:34.355Z,20.61
2022-08-25T07:49:02.017Z,20.73
2022-08-25T07:51:29.393Z,20.63
2022-08-25T07:53:56.406Z,20.91
2022-08-25T07:56:23.730Z,21.21
2022-08-25T07:58:51.329Z,22.06
2022-08-25T08:01:19.955Z,22.79
2022-08-25T08:03:51.117Z,23.08
2022-08-25T08:06:20.213Z,22.96
2022-08-25T08:08:49.714Z,23.23
2022-08-25T08:11:27.406Z,23.70
2022-08-25T08:13:55.757Z,24.94
2022-08-25T08:16:24.034Z,25.25
2022-08-25T08:18:50.942Z,25.73
2022-08-25T08:21:29.655Z,26.65
2022-08-25T08:23:59.112Z,27.29
2022-08-25T08:26:48.356Z,27.14
2022-08-25T08:29:16.494Z,28.87
2022-08-25T08:31:48.358Z,29.95
2022-08-25T08:34:16.471Z,28.90
2022-08-25T08:36:43.549Z,27.75
2022-08-25T08:39:12.793Z,27.55
2022-08-25T08:42:17.175Z,27.70
2022-08-25T08:44:46.060Z,26.99
2022-08-25T08:47:22.466Z,26.75
2022-08-25T08:49:56.719Z,26.61
2022-08-25T08:52:29.114Z,26.41
2022-08-25T08:55:01.179Z,25.94
2022-08-25T08:57:29.310Z,25.15
2022-08-25T09:00:01.303Z,25.30
2022-08-25T09:02:38.665Z,26.14
2022-08-25T09:05:11.824Z,27.42
2022-08-25T09:07:48.780Z,29.66
2022-08-25T09:10:23.095Z,31.04
2022-08-25T09:12:58.063Z,31.33
2022-08-25T09:15:25.665Z,31.23
2022-08-25T09:17:59.008Z,31.35
2022-08-25T09:20:41.156Z,30.52
2022-08-25T09:23:08.243Z,29.31
2022-08-25T09:25:54.348Z,29.26
2022-08-25T09:28:28.655Z,29.92
2022-08-25T09:31:00.738Z,29.60
2022-08-25T09:33:29.268Z,28.80
2022-08-25T09:35:57.277Z,28.81
2022-08-25T09:38:26.368Z,28.37
2022-08-25T09:40:58.044Z,28.38
2022-08-25T09:43:28.369Z,27.67
2022-08-25T09:46:00.487Z,27.48
2022-08-25T09:48:40.836Z,28.03
2022-08-25T09:51:24.007Z,28.68
2022-08-25T09:53:59.999Z,28.64
2022-08-25T09:56:29.002Z,28.83
2022-08-25T09:59:02.430Z,28.86
2022-08-25T10:01:32.106Z,28.36
2022-08-25T10:04:06.840Z,28.26
2022-08-25T10:06:47.584Z,29.14
2022-08-25T10:09:27.094Z,30.29
2022-08-25T10:11:57.682Z,31.18
2022-08-25T10:14:24.864Z,31.62
2022-08-25T10:16:53.604Z,32.30
2022-08-25T10:19:24.046Z,32.44
2022-08-25T10:22:10.879Z,33.06
2022-08-25T10:24:41.062Z,33.38
2022-08-25T10:27:30.113Z,32.29
2022-08-25T10:29:57.606Z,32.58
2022-08-25T10:32:43.150Z,31.52
2022-08-25T10:35:15.609Z,30.24
2022-08-25T10:37:44.621Z,30.23
2022-08-25T10:40:19.121Z,30.56
2022-08-25T10:42:46.253Z,31.32
2022-08-25T10:45:33.010Z,31.63
2022-08-25T10:48:10.663Z,30.82
2022-08-25T10:50:45.517Z,29.95
2022-08-25T10:53:16.959Z,29.61
2022-08-25T10:55:56.237Z,29.74
2022-08-25T10:58:44.025Z,29.19
2022-08-25T11:01:34.704Z,31.04
2022-08-25T11:04:10.404Z,31.18
2022-08-25T11:06:40.628Z,30.36
2022-08-25T11:09:10.407Z,31.84
2022-08-25T11:11:39.332Z,33.34
2022-08-25T11:14:11.608Z,34.49
2022-08-25T11:16:40.568Z,34.32
2022-08-25T11:19:16.938Z,35.40
2022-08-25T11:22:04.034Z,35.87
2022-08-25T11:24:37.525Z,36.52
2022-08-25T11:27:06.458Z,37.22
2022-08-25T11:29:36.898Z,37.49
2022-08-25T11:32:06.517Z,35.47
2022-08-25T11:34:35.206Z,32.68
2022-08-25T11:37:14.683Z,32.96
2022-08-25T11:39:44.767Z,34.22
2022-08-25T11:42:27.826Z,35.67
2022-08-25T11:45:12.792Z,36.33
2022-08-25T11:47:59.953Z,36.35
2022-08-25T11:50:35.578Z,35.55
2022-08-25T11:53:12.350Z,35.07
2022-08-25T11:55:41.987Z,35.65
2022-08-25T11:58:27.635Z,35.88
2022-08-25T12:01:00.229Z,35.55
2022-08-25T12:03:36.434Z,34.41
2022-08-25T12:06:09.354Z,35.30
2022-08-25T12:08:52.395Z,36.25
2022-08-25T12:11:37.659Z,35.83
2022-08-25T12:14:14.359Z,35.18
2022-08-25T12:16:43.621Z,33.71
2022-08-25T12:19:29.119Z,31.83
2022-08-25T12:22:16.280Z,31.49
2022-08-25T12:24:47.666Z,31.39
2022-08-25T12:27:33.544Z,31.09
2022-08-25T12:30:22.102Z,31.41
2022-08-25T12:33:01.986Z,31.50
2022-08-25T12:35:31.449Z,30.62
2022-08-25T12:37:58.509Z,29.70
2022-08-25T12:40:27.838Z,29.08
2022-08-25T12:43:04.202Z,28.65
2022-08-25T12:45:55.376Z,28.45
2022-08-25T12:48:29.056Z,28.70
2022-08-25T12:51:07.930Z,29.09
2022-08-25T12:53:37.989Z,28.91
2022-08-25T12:56:10.418Z,28.26
2022-08-25T12:59:00.377Z,28.31
2022-08-25T13:01:35.201Z,27.94
2022-08-25T13:04:15.049Z,27.34
2022-08-25T13:07:06.851Z,26.87
2022-08-25T13:09:47.154Z,26.74
2022-08-25T13:12:14.387Z,26.94
2022-08-25T13:14:43.990Z,27.04
2022-08-25T13:17:11.337Z,27.26
2022-08-25T13:19:38.928Z,26.75
2022-08-25T13:22:16.612Z,26.75
2022-08-25T13:24:45.372Z,26.86
2022-08-25T13:27:24.477Z,26.95
2022-08-25T13:30:03.853Z,26.59
2022-08-25T13:32:36.391Z,26.65
2022-08-25T13:35:09.538Z,26.90
2022-08-25T13:37:36.767Z,26.82
2022-08-25T13:40:11.299Z,26.94
2022-08-25T13:42:43.714Z,26.38
2022-08-25T13:45:16.907Z,26.17
2022-08-25T13:47:45.596Z,26.36
2022-08-25T13:50:34.354Z,26.43
2022-08-25T13:53:04.361Z,26.45
2022-08-25T13:55:31.212Z,26.20
2022-08-25T13:58:12.862Z,26.20
2022-08-25T14:00:47.260Z,26.30
2022-08-25T14:03:33.490Z,26.42
2022-08-25T14:06:06.238Z,26.31
2022-08-25T14:08:38.725Z,26.09
2022-08-25T14:11:14.609Z,26.35
2022-08-25T14:13:44.574Z,26.37
2022-08-25T14:16:25.552Z,26.34
2022-08-25T14:18:57.790Z,26.18
2022-08-25T14:21:27.369Z,26.16
2022-08-25T14:23:55.436Z,26.17
2022-08-25T14:26:22.900Z,25.89
2022-08-25T14:28:50.268Z,25.80
2022-08-25T14:31:23.864Z,25.75
2022-08-25T14:34:02.750Z,25.84
2022-08-25T14:36:30.722Z,25.84
2022-08-25T14:38:57.741Z,25.90
2022-08-25T14:41:25.960Z,25.68
2022-08-25T14:43:54.001Z,25.81
2022-08-25T14:46:25.337Z,25.87
2022-08-25T14:48:55.578Z,25.67
2022-08-25T14:51:23.665Z,25.66
2022-08-25T14:53:53.052Z,25.40
2022-08-25T14:56:20.016Z,25.53
2022-08-25T14:58:51.535Z,25.51
2022-08-25T15:01:28.561Z,25.45
2022-08-25T15:04:01.441Z,25.47
2022-08-25T15:06:28.662Z,25.51
2022-08-25T15:09:11.557Z,25.40
2022-08-25T15:11:41.569Z,25.46
2022-08-25T15:14:10.777Z,25.44
2022-08-25T15:16:43.105Z,25.24
2022-08-25T15:19:15.725Z,25.06
2022-08-25T15:21:43.743Z,25.26
2022-08-25T15:24:11.680Z,25.24
2022-08-25T15:26:41.562Z,25.16
2022-08-25T15:29:08.979Z,25.33
2022-08-25T15:31:36.762Z,25.34
2022-08-25T15:34:06.322Z,25.16
2022-08-25T15:36:34.290Z,25.13
2022-08-25T15:39:01.744Z,25.10
2022-08-25T15:41:31.550Z,24.85
2022-08-25T15:44:00.378Z,24.81
2022-08-25T15:46:30.325Z,24.89
2022-08-25T15:48:59.579Z,25.03
2022-08-25T15:51:27.334Z,25.05
2022-08-25T15:53:54.586Z,24.92
2022-08-25T15:56:26.809Z,24.95
2022-08-25T15:58:55.757Z,24.95
2022-08-25T16:01:27.510Z,24.86
2022-08-25T16:03:57.603Z,24.79
2022-08-25T16:06:26.222Z,24.80
2022-08-25T16:08:53.713Z,24.88
2022-08-25T16:11:22.186Z,24.68
2022-08-25T16:13:51.754Z,24.78
2022-08-25T16:16:19.517Z,24.74
2022-08-25T16:18:46.850Z,24.74
2022-08-25T16:21:17.017Z,24.75
2022-08-25T16:23:44.722Z,24.82
2022-08-25T16:26:12.950Z,24.82
2022-08-25T16:28:43.745Z,24.73
2022-08-25T16:31:12.398Z,24.51
2022-08-25T16:36:09.454Z,24.57
2022-08-25T16:38:36.914Z,24.69
2022-08-25T16:41:08.923Z,24.52
2022-08-25T16:43:36.749Z,24.57
2022-08-25T16:46:06.789Z,24.60
2022-08-25T16:48:34.106Z,24.58
2022-08-25T16:51:01.358Z,24.65
2022-08-25T16:53:47.320Z,24.47
2022-08-25T16:56:15.972Z,24.31
2022-08-25T16:58:43.348Z,24.36
2022-08-25T17:01:12.961Z,24.41
2022-08-25T17:03:44.044Z,24.36
2022-08-25T17:06:11.247Z,24.30
2022-08-25T17:08:38.168Z,24.29
2022-08-25T17:11:06.997Z,24.30
2022-08-25T17:13:34.637Z,24.21
2022-08-25T17:16:03.151Z,24.06
2022-08-25T17:18:30.702Z,24.19
2022-08-25T17:20:58.844Z,24.08
2022-08-25T17:23:25.763Z,24.02
2022-08-25T17:25:52.880Z,23.98
2022-08-25T17:28:19.747Z,23.89
2022-08-25T17:30:48.703Z,23.89
2022-08-25T17:33:16.027Z,23.89
2022-08-25T17:35:44.398Z,23.83
2022-08-25T17:38:11.900Z,23.84
2022-08-25T17:40:39.476Z,23.86
2022-08-25T17:43:08.912Z,23.89
2022-08-25T17:45:36.252Z,23.75
2022-08-25T17:48:03.907Z,23.75
2022-08-25T17:50:31.689Z,23.65
2022-08-25T17:53:01.303Z,23.58
2022-08-25T17:55:28.684Z,23.54
2022-08-25T17:57:55.578Z,23.47
2022-08-25T18:00:22.998Z,23.41
2022-08-25T18:02:51.097Z,23.35
2022-08-25T18:05:18.294Z,23.30
2022-08-25T18:07:45.274Z,23.14
2022-08-25T18:10:12.609Z,23.10
2022-08-25T18:12:39.813Z,23.02
2022-08-25T18:15:08.191Z,22.96
2022-08-25T18:17:36.077Z,22.90
2022-08-25T18:20:06.297Z,22.83
2022-08-25T18:22:33.489Z,22.80
2022-08-25T18:25:01.395Z,22.76
2022-08-25T18:27:29.994Z,22.70
2022-08-25T18:29:57.789Z,22.58
2022-08-25T18:32:25.983Z,22.53
2022-08-25T18:34:54.649Z,22.49
2022-08-25T18:37:40.575Z,22.44
2022-08-25T18:40:22.990Z,22.38
2022-08-25T18:42:55.206Z,22.26
2022-08-25T18:45:23.630Z,22.19
2022-08-25T18:47:56.326Z,22.14
2022-08-25T18:50:24.319Z,22.11
2022-08-25T18:52:51.971Z,22.02
2022-08-25T18:58:00.631Z,21.92
2022-08-25T19:00:28.863Z,21.88
2022-08-25T19:02:57.431Z,21.80
2022-08-25T19:05:27.040Z,21.76
2022-08-25T19:07:56.226Z,21.69
2022-08-25T19:10:24.069Z,21.66
2022-08-25T19:12:52.262Z,21.60
2022-08-25T19:15:24.683Z,21.53
2022-08-25T19:17:53.468Z,21.49
2022-08-25T19:20:21.049Z,21.44
2022-08-25T19:22:47.987Z,21.37
2022-08-25T19:25:16.001Z,21.41
2022-08-25T19:27:43.699Z,21.36
2022-08-25T19:30:12.495Z,21.31
2022-08-25T19:32:42.479Z,21.26
2022-08-25T19:35:12.424Z,21.23
2022-08-25T19:37:40.841Z,21.19
2022-08-25T19:40:08.826Z,21.13
2022-08-25T19:42:38.611Z,21.10
2022-08-25T19:45:06.441Z,21.05
2022-08-25T19:47:33.920Z,20.96
2022-08-25T19:50:01.107Z,20.97
2022-08-25T19:52:28.819Z,20.91
2022-08-25T19:54:55.987Z,20.86
2022-08-25T19:57:28.367Z,20.82
2022-08-25T20:00:11.830Z,20.76
2022-08-25T20:02:39.691Z,20.79
2022-08-25T20:05:06.985Z,20.71
2022-08-25T20:07:35.520Z,20.66
2022-08-25T20:10:04.425Z,20.67
2022-08-25T20:12:31.588Z,20.58
2022-08-25T20:14:59.398Z,20.55
2022-08-25T20:17:28.665Z,20.59
2022-08-25T20:19:57.710Z,20.54
2022-08-25T20:22:27.150Z,20.50
2022-08-25T20:24:58.045Z,20.50
2022-08-25T20:27:37.409Z,20.41
2022-08-25T20:30:06.843Z,20.44
2022-08-25T20:32:34.996Z,20.42
2022-08-25T20:35:05.147Z,20.41
2022-08-25T20:37:36.856Z,20.36
2022-08-25T20:40:05.058Z,20.28
2022-08-25T20:42:34.603Z,20.25
2022-08-25T20:45:02.048Z,20.29
2022-08-25T20:47:29.309Z,20.18
2022-08-25T20:49:58.357Z,20.15
2022-08-25T20:52:26.191Z,20.13
2022-08-25T20:54:53.540Z,20.10
2022-08-25T20:57:24.331Z,20.08
2022-08-25T20:59:53.083Z,20.01
2022-08-25T21:02:20.385Z,19.96
2022-08-25T21:04:50.136Z,19.95
2022-08-25T21:07:18.650Z,19.88
2022-08-25T21:09:46.134Z,19.86
2022-08-25T21:12:13.171Z,19.93
2022-08-25T21:14:41.558Z,19.82
2022-08-25T21:17:10.793Z,19.78
2022-08-25T21:19:39.890Z,19.71
2022-08-25T21:22:07.701Z,19.70
2022-08-25T21:24:34.899Z,19.56
2022-08-25T21:27:03.751Z,19.48
2022-08-25T21:29:32.904Z,19.42
2022-08-25T21:32:00.204Z,19.41
2022-08-25T21:34:28.928Z,19.35
2022-08-25T21:37:00.048Z,19.32
2022-08-25T21:39:28.267Z,19.34
2022-08-25T21:41:56.582Z,19.34
2022-08-25T21:44:24.096Z,19.31
2022-08-25T21:54:33.226Z,18.87
2022-08-25T21:57:02.195Z,18.95
2022-08-25T21:59:30.590Z,19.01
2022-08-25T22:01:59.397Z,19.03
2022-08-25T22:04:28.173Z,19.09
2022-08-25T22:06:55.858Z,19.10
2022-08-25T22:09:25.213Z,19.19
2022-08-25T22:11:54.666Z,19.22
2022-08-25T22:14:22.046Z,19.24
2022-08-25T22:16:49.016Z,19.20
2022-08-25T22:19:16.118Z,19.20
2022-08-25T22:21:43.488Z,19.14
2022-08-25T22:24:10.556Z,19.14
2022-08-25T22:26:38.008Z,19.09
2022-08-25T22:29:05.233Z,19.04
2022-08-25T22:31:33.738Z,18.94
2022-08-25T22:34:01.026Z,18.85
2022-08-25T22:36:31.270Z,18.88
2022-08-25T22:38:58.424Z,18.79
2022-08-25T22:41:27.079Z,18.81
2022-08-25T22:43:55.530Z,18.78
2022-08-25T22:46:23.562Z,18.74
2022-08-25T22:48:51.465Z,18.73
2022-08-25T22:51:20.190Z,18.64
2022-08-25T22:53:48.092Z,18.64
2022-08-25T22:56:17.462Z,18.63
2022-08-25T22:58:51.567Z,18.55
2022-08-25T23:01:20.302Z,18.49
2022-08-25T23:03:48.050Z,18.39
2022-08-25T23:06:20.802Z,18.37
2022-08-25T23:08:52.789Z,18.38
2022-08-25T23:11:21.361Z,18.36
2022-08-25T23:13:48.580Z,18.40
2022-08-25T23:16:16.174Z,18.41
2022-08-25T23:18:45.067Z,18.39
2022-08-25T23:21:35.136Z,18.39
2022-08-25T23:24:05.738Z,18.38
2022-08-25T23:26:33.468Z,18.36
2022-08-25T23:29:00.703Z,18.36
2022-08-25T23:31:30.541Z,18.36
2022-08-25T23:33:58.498Z,18.34
2022-08-25T23:36:25.981Z,18.29
2022-08-25T23:38:53.092Z,18.29
2022-08-25T23:41:22.775Z,18.29
2022-08-25T23:43:50.204Z,18.28
2022-08-25T23:46:18.451Z,18.22
2022-08-25T23:48:45.296Z,18.22
2022-08-25T23:51:13.159Z,18.22
2022-08-25T23:53:40.213Z,18.21
2022-08-25T23:56:07.432Z,18.23
2022-08-25T23:58:35.961Z,18.21
